Time;durP1;ratioP1;P1;durP2;ratioP2;P2;SDS_P1;SDS_P2;PMS_P1;PMS_P2;Temp;Humidity;BMP_temperature;BMP_pressure;BME280_temperature;BME280_humidity;BME280_pressure;Samples;Min_cycle;Max_cycle;Signal;HPM_P1;HPM_P2
2022/06/06 00:00:40;;;;;;;3.40;2.53;;;;;;;;;;5027375;28;20375;-69
2022/06/06 00:03:06;;;;;;;3.00;2.47;;;;;;;;;;5029626;28;20028;-68
2022/06/06 00:05:32;;;;;;;4.00;2.40;;;;;;;;;;5030111;28;20318;-70
2022/06/06 00:07:58;;;;;;;4.65;1.75;;;;;;;;;;5026764;28;20032;-71
2022/06/06 00:10:24;;;;;;;2.90;2.42;;;;;;;;;;5029872;28;20412;-69
2022/06/06 00:12:49;;;;;;;3.47;2.55;;;;;;;;;;5032553;28;20451;-69
2022/06/06 00:15:15;;;;;;;2.60;2.13;;;;;;;;;;5032177;28;20461;-68
2022/06/06 00:17:40;;;;;;;3.28;2.45;;;;;;;;;;5032219;28;20469;-69
2022/06/06 00:20:06;;;;;;;2.53;2.30;;;;;;;;;;5032646;28;20326;-68
2022/06/06 00:22:32;;;;;;;4.35;2.67;;;;;;;;;;5031998;28;20449;-69
2022/06/06 00:24:57;;;;;;;3.33;2.53;;;;;;;;;;5031912;28;20473;-69
2022/06/06 00:27:22;;;;;;;6.30;2.78;;;;;;;;;;5032103;28;20352;-68
2022/06/06 00:29:49;;;;;;;5.35;2.90;;;;;;;;;;5031610;28;20457;-69
2022/06/06 00:35:03;;;;;;;3.33;2.63;;;;;;;;;;5033507;28;20526;-68
2022/06/06 00:37:32;;;;;;;5.93;2.53;;;;;;;;;;5032247;28;20407;-69
2022/06/06 00:39:58;;;;;;;6.75;3.20;;;;;;;;;;5032063;28;20450;-70
2022/06/06 00:42:25;;;;;;;3.17;2.53;;;;;;;;;;5030362;28;20418;-69
2022/06/06 00:45:16;;;;;;;3.30;2.25;;;;;;;;;;5032660;28;20020;-69
2022/06/06 00:47:42;;;;;;;3.80;2.55;;;;;;;;;;5033436;28;20442;-68
2022/06/06 00:50:15;;;;;;;4.00;2.50;;;;;;;;;;5029987;28;20378;-69
2022/06/06 00:52:42;;;;;;;3.05;2.40;;;;;;;;;;5030779;28;20572;-69
2022/06/06 00:55:23;;;;;;;2.92;2.50;;;;;;;;;;5030151;28;20139;-69
2022/06/06 00:57:51;;;;;;;3.20;2.15;;;;;;;;;;5030019;28;20427;-68
2022/06/06 01:00:18;;;;;;;3.60;2.58;;;;;;;;;;5026250;28;20056;-68
2022/06/06 01:02:48;;;;;;;3.53;2.70;;;;;;;;;;5021620;28;20350;-69
2022/06/06 01:05:13;;;;;;;3.65;2.60;;;;;;;;;;4994448;28;20390;-68
2022/06/06 01:07:39;;;;;;;3.20;2.50;;;;;;;;;;5011311;28;20366;-69
2022/06/06 01:10:04;;;;;;;3.20;2.22;;;;;;;;;;5009650;28;20037;-69
2022/06/06 01:12:31;;;;;;;4.75;2.65;;;;;;;;;;5012081;28;20440;-68
2022/06/06 01:14:59;;;;;;;3.42;2.45;;;;;;;;;;5009896;28;20381;-69
2022/06/06 01:17:33;;;;;;;4.15;3.28;;;;;;;;;;5011391;28;20308;-69
2022/06/06 01:20:30;;;;;;;3.58;2.60;;;;;;;;;;5011690;28;20033;-69
2022/06/06 01:23:04;;;;;;;3.13;2.78;;;;;;;;;;5010540;28;20169;-69
2022/06/06 01:25:35;;;;;;;2.42;2.17;;;;;;;;;;5011060;28;20521;-69
2022/06/06 01:28:34;;;;;;;3.30;2.47;;;;;;;;;;5009514;28;20344;-68
2022/06/06 01:31:04;;;;;;;4.25;2.60;;;;;;;;;;5011026;28;20481;-69
2022/06/06 01:33:30;;;;;;;4.40;2.65;;;;;;;;;;5010954;28;20470;-69
2022/06/06 01:36:00;;;;;;;3.53;2.45;;;;;;;;;;5009564;28;20455;-68
2022/06/06 01:38:25;;;;;;;2.90;2.38;;;;;;;;;;5009734;28;20051;-69
2022/06/06 01:41:03;;;;;;;3.65;2.35;;;;;;;;;;5010542;28;20427;-69
2022/06/06 01:43:45;;;;;;;4.00;3.22;;;;;;;;;;5009569;28;20431;-69
2022/06/06 01:46:17;;;;;;;2.58;2.30;;;;;;;;;;5009443;28;20350;-68
2022/06/06 01:48:43;;;;;;;3.58;2.70;;;;;;;;;;5008680;28;20391;-69
2022/06/06 01:51:15;;;;;;;4.07;2.72;;;;;;;;;;5011449;28;20052;-70
2022/06/06 01:53:41;;;;;;;3.22;2.83;;;;;;;;;;5011373;28;20334;-68
2022/06/06 01:56:08;;;;;;;3.40;2.63;;;;;;;;;;5010597;28;20435;-69
2022/06/06 01:58:34;;;;;;;2.78;2.47;;;;;;;;;;5010451;28;20431;-68
2022/06/06 02:01:01;;;;;;;3.47;2.67;;;;;;;;;;5009994;28;20461;-69
2022/06/06 02:03:27;;;;;;;3.00;2.25;;;;;;;;;;5010415;28;20557;-69
2022/06/06 02:05:52;;;;;;;3.33;2.47;;;;;;;;;;5009786;28;20451;-69
2022/06/06 02:08:17;;;;;;;2.72;2.28;;;;;;;;;;5010593;28;20431;-68
2022/06/06 02:10:43;;;;;;;3.08;2.75;;;;;;;;;;5010138;28;20439;-69
2022/06/06 02:13:10;;;;;;;2.75;2.20;;;;;;;;;;5008592;28;20438;-69
2022/06/06 02:15:36;;;;;;;3.38;2.75;;;;;;;;;;5008754;28;20354;-70
2022/06/06 02:18:01;;;;;;;3.15;2.58;;;;;;;;;;5008820;28;20028;-69
2022/06/06 02:20:29;;;;;;;3.72;2.70;;;;;;;;;;5008629;28;20450;-69
2022/06/06 02:22:54;;;;;;;2.75;2.35;;;;;;;;;;5010507;28;20055;-68
2022/06/06 02:25:20;;;;;;;2.47;2.05;;;;;;;;;;5008179;28;20432;-68
2022/06/06 02:27:46;;;;;;;2.72;2.47;;;;;;;;;;5011348;28;20335;-69
2022/06/06 02:30:18;;;;;;;3.58;2.33;;;;;;;;;;5008102;28;20512;-70
2022/06/06 02:32:43;;;;;;;5.18;2.83;;;;;;;;;;5009001;28;20332;-68
2022/06/06 02:35:10;;;;;;;5.15;2.90;;;;;;;;;;5009446;28;20374;-68
2022/06/06 02:37:37;;;;;;;3.95;2.78;;;;;;;;;;5008267;28;20407;-69
2022/06/06 02:40:06;;;;;;;3.42;2.92;;;;;;;;;;5008517;28;20320;-69
2022/06/06 02:42:32;;;;;;;3.20;2.28;;;;;;;;;;5011098;28;20552;-69
2022/06/06 02:44:57;;;;;;;3.78;2.80;;;;;;;;;;5011213;28;20504;-68
2022/06/06 02:47:22;;;;;;;3.40;2.45;;;;;;;;;;5009437;28;20343;-70
2022/06/06 02:49:48;;;;;;;3.65;2.75;;;;;;;;;;5009418;28;20398;-68
2022/06/06 02:52:13;;;;;;;4.22;3.10;;;;;;;;;;5009143;28;20489;-69
2022/06/06 02:54:39;;;;;;;6.70;2.58;;;;;;;;;;5009444;28;20431;-70
2022/06/06 02:57:05;;;;;;;3.00;2.70;;;;;;;;;;5009084;28;20434;-69
2022/06/06 02:59:32;;;;;;;3.95;2.63;;;;;;;;;;5009029;28;20430;-69
2022/06/06 03:01:58;;;;;;;3.40;2.60;;;;;;;;;;5009637;28;20381;-69
2022/06/06 03:04:23;;;;;;;4.50;2.83;;;;;;;;;;5008600;28;20394;-69
2022/06/06 03:07:11;;;;;;;3.85;2.33;;;;;;;;;;5009342;28;20028;-68
2022/06/06 03:10:07;;;;;;;3.17;2.63;;;;;;;;;;4991539;28;20029;-69
2022/06/06 03:13:03;;;;;;;3.92;2.80;;;;;;;;;;5008865;28;20072;-68
2022/06/06 03:20:46;;;;;;;4.13;2.60;;;;;;;;;;5009240;28;20416;-68
2022/06/06 03:22:09;;;;;;;3.88;2.72;;;;;;;;;;4991846;28;20485;-70
2022/06/06 03:24:57;;;;;;;3.60;3.28;;;;;;;;;;4990859;28;20473;-68
2022/06/06 03:27:41;;;;;;;3.28;2.50;;;;;;;;;;5005154;28;20442;-68
2022/06/06 03:30:39;;;;;;;3.25;2.55;;;;;;;;;;4994970;28;20449;-69
2022/06/06 03:33:10;;;;;;;3.38;2.63;;;;;;;;;;4933196;28;20452;-69
2022/06/06 03:35:56;;;;;;;3.55;2.40;;;;;;;;;;4951735;28;20044;-69
2022/06/06 03:38:38;;;;;;;3.83;2.50;;;;;;;;;;4969231;28;21079;-69
2022/06/06 03:41:31;;;;;;;4.13;2.50;;;;;;;;;;4968961;28;20582;-69
2022/06/06 03:44:15;;;;;;;3.53;2.85;;;;;;;;;;4970240;28;20337;-69
2022/06/06 03:46:56;;;;;;;3.58;2.90;;;;;;;;;;4970035;28;20404;-69
2022/06/06 03:49:33;;;;;;;4.15;2.72;;;;;;;;;;4968571;28;20476;-69
2022/06/06 03:52:14;;;;;;;3.38;2.75;;;;;;;;;;4969558;28;20495;-69
2022/06/06 03:55:06;;;;;;;5.15;2.60;;;;;;;;;;4951601;28;20467;-69
2022/06/06 03:57:34;;;;;;;3.45;2.63;;;;;;;;;;4969079;28;20148;-68
2022/06/06 04:00:04;;;;;;;3.70;2.75;;;;;;;;;;4969211;28;20033;-68
2022/06/06 04:02:34;;;;;;;3.50;2.85;;;;;;;;;;4951806;28;20432;-68
2022/06/06 04:05:02;;;;;;;4.07;2.70;;;;;;;;;;4968163;28;20045;-71
2022/06/06 04:07:27;;;;;;;3.80;2.53;;;;;;;;;;4951934;28;20332;-68
2022/06/06 04:09:53;;;;;;;4.13;2.80;;;;;;;;;;4950988;28;20340;-69
2022/06/06 04:12:55;;;;;;;3.35;3.05;;;;;;;;;;4968760;28;20475;-70
2022/06/06 04:15:27;;;;;;;5.15;3.20;;;;;;;;;;4968729;28;20406;-69
2022/06/06 04:18:04;;;;;;;3.05;2.55;;;;;;;;;;4951875;28;20451;-69
2022/06/06 04:20:35;;;;;;;3.63;2.63;;;;;;;;;;4969099;28;20431;-69
2022/06/06 04:23:10;;;;;;;4.85;2.95;;;;;;;;;;4969040;28;20456;-68
2022/06/06 04:25:47;;;;;;;3.67;2.80;;;;;;;;;;4950853;28;20530;-68
2022/06/06 04:28:58;;;;;;;2.83;2.50;;;;;;;;;;4951481;28;20409;-68
2022/06/06 04:31:48;;;;;;;2.60;2.33;;;;;;;;;;4966438;28;20050;-69
2022/06/06 04:34:23;;;;;;;3.50;2.47;;;;;;;;;;4968759;28;20456;-69
2022/06/06 04:36:56;;;;;;;3.15;2.60;;;;;;;;;;4951376;28;20439;-69
2022/06/06 04:39:25;;;;;;;3.47;2.75;;;;;;;;;;4951527;28;20623;-68
2022/06/06 04:41:53;;;;;;;;;;;;;;;;;;4951768;28;20456;-69
2022/06/06 04:44:41;;;;;;;3.10;2.65;;;;;;;;;;4950972;28;20331;-69
2022/06/06 04:47:19;;;;;;;4.20;2.67;;;;;;;;;;4968427;28;20325;-70
2022/06/06 04:49:45;;;;;;;3.55;2.75;;;;;;;;;;4968525;28;20479;-69
2022/06/06 04:52:11;;;;;;;4.63;2.40;;;;;;;;;;4951217;28;20413;-68
2022/06/06 04:54:39;;;;;;;2.78;2.45;;;;;;;;;;4968806;28;20438;-68
2022/06/06 04:57:05;;;;;;;5.60;2.90;;;;;;;;;;4971734;28;20483;-68
2022/06/06 04:59:31;;;;;;;3.67;2.55;;;;;;;;;;4972190;28;20325;-68
2022/06/06 05:01:59;;;;;;;3.83;2.58;;;;;;;;;;4954975;28;20026;-68
2022/06/06 05:04:25;;;;;;;;;;;;;;;;;;4972712;28;20021;-68
2022/06/06 05:06:50;;;;;;;6.25;2.72;;;;;;;;;;4954342;28;20344;-68
2022/06/06 05:09:27;;;;;;;2.90;2.53;;;;;;;;;;4971831;28;20482;-68
2022/06/06 05:12:14;;;;;;;3.83;2.65;;;;;;;;;;4971638;28;20391;-68
2022/06/06 05:14:52;;;;;;;2.83;2.50;;;;;;;;;;4971559;28;20395;-68
2022/06/06 05:17:45;;;;;;;2.55;2.00;;;;;;;;;;4971698;28;20383;-68
2022/06/06 05:20:31;;;;;;;3.40;2.58;;;;;;;;;;4971608;28;20044;-68
2022/06/06 05:23:30;;;;;;;3.22;2.90;;;;;;;;;;4971542;28;20060;-69
2022/06/06 05:26:13;;;;;;;3.30;2.53;;;;;;;;;;4954059;28;20541;-69
2022/06/06 05:28:51;;;;;;;3.45;2.55;;;;;;;;;;4953978;28;20037;-68
2022/06/06 05:31:30;;;;;;;2.70;2.40;;;;;;;;;;4971383;28;20079;-68
2022/06/06 05:34:03;;;;;;;2.70;2.40;;;;;;;;;;4959054;28;20444;-68
2022/06/06 05:36:47;;;;;;;2.88;2.60;;;;;;;;;;4971258;28;20044;-68
2022/06/06 05:39:40;;;;;;;2.90;2.55;;;;;;;;;;4972596;28;20037;-69
2022/06/06 05:42:30;;;;;;;2.47;2.20;;;;;;;;;;4971590;28;20348;-68
2022/06/06 05:45:00;;;;;;;4.82;2.80;;;;;;;;;;4972336;28;20360;-68
2022/06/06 05:47:52;;;;;;;3.80;2.58;;;;;;;;;;4969602;28;20440;-68
2022/06/06 05:50:26;;;;;;;3.30;2.50;;;;;;;;;;4959934;28;20069;-68
2022/06/06 05:53:00;;;;;;;2.78;2.28;;;;;;;;;;4971063;28;20348;-69
2022/06/06 05:55:28;;;;;;;3.75;2.75;;;;;;;;;;4970664;28;20416;-68
2022/06/06 05:58:13;;;;;;;3.42;2.40;;;;;;;;;;4970928;28;20432;-68
2022/06/06 06:01:12;;;;;;;3.47;2.35;;;;;;;;;;4971448;28;20029;-68
2022/06/06 06:04:00;;;;;;;3.17;2.40;;;;;;;;;;4969641;28;20029;-69
2022/06/06 06:06:32;;;;;;;2.47;2.28;;;;;;;;;;4971314;28;20378;-68
2022/06/06 06:09:23;;;;;;;2.75;2.38;;;;;;;;;;4970571;28;20037;-70
2022/06/06 06:11:54;;;;;;;3.05;2.20;;;;;;;;;;4970926;28;20080;-69
2022/06/06 06:14:34;;;;;;;3.55;2.53;;;;;;;;;;4970918;28;20034;-68
2022/06/06 06:17:02;;;;;;;3.20;2.47;;;;;;;;;;4970855;28;20479;-68
2022/06/06 06:19:41;;;;;;;4.40;3.03;;;;;;;;;;4969025;28;20476;-68
2022/06/06 06:22:07;;;;;;;2.47;2.00;;;;;;;;;;4969239;28;20365;-68
2022/06/06 06:24:36;;;;;;;3.83;2.40;;;;;;;;;;4969141;28;20383;-68
2022/06/06 06:27:03;;;;;;;2.78;2.25;;;;;;;;;;4968966;28;20492;-69
2022/06/06 06:29:28;;;;;;;2.80;2.33;;;;;;;;;;4970222;28;20432;-68
2022/06/06 06:32:00;;;;;;;3.15;2.40;;;;;;;;;;4970574;28;20352;-68
2022/06/06 06:34:51;;;;;;;11.25;2.60;;;;;;;;;;4970452;28;20383;-68
2022/06/06 06:37:57;;;;;;;4.95;2.33;;;;;;;;;;4971029;28;20033;-68
2022/06/06 06:40:56;;;;;;;4.40;2.80;;;;;;;;;;4968314;28;20364;-70
2022/06/06 06:43:44;;;;;;;2.83;2.35;;;;;;;;;;4937175;28;20041;-68
2022/06/06 06:46:34;;;;;;;2.90;2.60;;;;;;;;;;4969302;28;20412;-68
2022/06/06 06:49:35;;;;;;;3.55;2.85;;;;;;;;;;4966941;28;20360;-68
2022/06/06 06:52:19;;;;;;;2.60;2.40;;;;;;;;;;4969759;28;20460;-69
2022/06/06 06:55:22;;;;;;;4.25;2.60;;;;;;;;;;4970572;28;20328;-68
2022/06/06 06:57:59;;;;;;;2.92;2.15;;;;;;;;;;4970946;28;20060;-68
2022/06/06 07:00:25;;;;;;;3.10;2.38;;;;;;;;;;4968272;28;20368;-67
2022/06/06 07:08:48;;;;;;;2.20;2.00;;;;;;;;;;4972233;28;20062;-69
2022/06/06 07:11:32;;;;;;;2.97;2.55;;;;;;;;;;4969767;28;20421;-68
2022/06/06 07:14:17;;;;;;;3.38;2.30;;;;;;;;;;4970956;28;20424;-68
2022/06/06 07:16:44;;;;;;;3.28;2.58;;;;;;;;;;4968526;28;20071;-68
2022/06/06 07:19:15;;;;;;;2.47;2.20;;;;;;;;;;4967297;28;20336;-68
2022/06/06 07:21:42;;;;;;;2.70;2.42;;;;;;;;;;4968097;28;20467;-68
2022/06/06 07:24:11;;;;;;;3.03;2.20;;;;;;;;;;4969466;28;20356;-67
2022/06/06 07:26:38;;;;;;;2.50;2.30;;;;;;;;;;4969565;28;20429;-68
2022/06/06 07:29:09;;;;;;;4.40;2.10;;;;;;;;;;4968090;28;20459;-68
2022/06/06 07:31:53;;;;;;;3.00;2.60;;;;;;;;;;4969510;28;20416;-68
2022/06/06 07:34:51;;;;;;;3.00;2.45;;;;;;;;;;4969654;28;20055;-68
2022/06/06 07:37:25;;;;;;;;;;;;;;;;;;4969961;28;20052;-67
2022/06/06 07:40:17;;;;;;;2.95;2.40;;;;;;;;;;4970813;28;20319;-68
2022/06/06 07:43:22;;;;;;;2.40;1.95;;;;;;;;;;4968007;28;20448;-67
2022/06/06 07:45:51;;;;;;;2.90;2.00;;;;;;;;;;4947333;28;20360;-68
2022/06/06 07:48:35;;;;;;;2.42;2.22;;;;;;;;;;4971675;28;20513;-68
2022/06/06 07:51:20;;;;;;;3.88;2.30;;;;;;;;;;4988733;28;20313;-68
2022/06/06 07:53:59;;;;;;;5.40;2.17;;;;;;;;;;4988746;28;20474;-69
2022/06/06 07:56:30;;;;;;;;;;;;;;;;;;4971382;28;20048;-68
2022/06/06 07:59:06;;;;;;;3.00;2.50;;;;;;;;;;4989960;28;20303;-68
2022/06/06 08:01:53;;;;;;;4.18;2.20;;;;;;;;;;4972005;28;20316;-68
2022/06/06 08:04:53;;;;;;;3.08;2.42;;;;;;;;;;4989115;28;20493;-67
2022/06/06 08:07:30;;;;;;;3.70;2.47;;;;;;;;;;4988974;28;20036;-67
2022/06/06 08:10:26;;;;;;;2.30;2.03;;;;;;;;;;4970392;28;20463;-68
2022/06/06 08:13:02;;;;;;;2.67;2.22;;;;;;;;;;4970834;28;20033;-67
2022/06/06 08:15:47;;;;;;;2.53;2.22;;;;;;;;;;4988375;28;20370;-68
2022/06/06 08:18:37;;;;;;;2.35;2.05;;;;;;;;;;4988981;28;20072;-67
2022/06/06 08:21:30;;;;;;;4.10;2.17;;;;;;;;;;4988517;28;20057;-67
2022/06/06 08:23:58;;;;;;;2.53;2.05;;;;;;;;;;4974537;28;20510;-68
2022/06/06 08:26:25;;;;;;;2.67;2.15;;;;;;;;;;4971026;28;20344;-67
2022/06/06 08:28:51;;;;;;;2.72;2.30;;;;;;;;;;4988719;28;20590;-67
2022/06/06 08:31:18;;;;;;;2.78;2.47;;;;;;;;;;4972437;28;20502;-68
2022/06/06 08:33:44;;;;;;;4.78;2.13;;;;;;;;;;4974898;28;20367;-68
2022/06/06 08:36:37;;;;;;;2.60;2.10;;;;;;;;;;4974505;28;20076;-67
2022/06/06 08:39:28;;;;;;;2.45;2.00;;;;;;;;;;4993323;28;20490;-67
2022/06/06 08:42:11;;;;;;;4.35;2.30;;;;;;;;;;4954043;28;20115;-68
2022/06/06 08:45:07;;;;;;;3.08;2.10;;;;;;;;;;4974353;28;20482;-68
2022/06/06 08:47:38;;;;;;;3.75;2.63;;;;;;;;;;4992244;28;20391;-67
2022/06/06 08:53:05;;;;;;;2.90;2.30;;;;;;;;;;4992917;28;20086;-65
2022/06/06 08:55:38;;;;;;;2.88;2.33;;;;;;;;;;4991972;28;20356;-65
2022/06/06 08:58:38;;;;;;;3.13;2.05;;;;;;;;;;4974599;28;20428;-65
2022/06/06 09:01:34;;;;;;;2.20;1.80;;;;;;;;;;4991613;28;20462;-66
2022/06/06 09:04:08;;;;;;;2.45;1.80;;;;;;;;;;4991883;28;20483;-66
2022/06/06 09:06:56;;;;;;;2.90;2.10;;;;;;;;;;4973394;28;20021;-65
2022/06/06 09:09:33;;;;;;;2.63;2.30;;;;;;;;;;4957483;28;20431;-65
2022/06/06 09:12:01;;;;;;;2.33;2.13;;;;;;;;;;4993552;28;20577;-66
2022/06/06 09:15:04;;;;;;;3.33;2.10;;;;;;;;;;4991429;28;20348;-65
2022/06/06 09:17:54;;;;;;;2.78;1.85;;;;;;;;;;4991286;28;20420;-65
2022/06/06 09:21:11;;;;;;;3.13;2.03;;;;;;;;;;4992854;28;20388;-65
2022/06/06 09:24:08;;;;;;;3.28;2.28;;;;;;;;;;4949818;28;20387;-66
2022/06/06 09:26:45;;;;;;;4.15;2.33;;;;;;;;;;4991309;28;20451;-65
2022/06/06 09:29:49;;;;;;;3.60;2.20;;;;;;;;;;4973747;28;20339;-66
2022/06/06 09:32:31;;;;;;;2.35;1.92;;;;;;;;;;4875926;29;20403;-66
2022/06/06 09:35:19;;;;;;;2.25;1.77;;;;;;;;;;4981753;28;20456;-66
2022/06/06 09:38:09;;;;;;;2.57;2.20;;;;;;;;;;4991199;28;20347;-65
2022/06/06 09:40:59;;;;;;;5.55;2.15;;;;;;;;;;4973489;28;20706;-65
2022/06/06 09:43:32;;;;;;;3.85;2.38;;;;;;;;;;4972609;28;20351;-66
2022/06/06 09:46:33;;;;;;;2.28;1.80;;;;;;;;;;4973430;28;20114;-65
2022/06/06 09:49:19;;;;;;;3.17;2.03;;;;;;;;;;4935876;28;20317;-66
2022/06/06 09:52:03;;;;;;;2.25;2.00;;;;;;;;;;4973391;28;20470;-65
2022/06/06 10:01:09;;;;;;;2.78;2.22;;;;;;;;;;4975063;28;20444;-66
2022/06/06 10:04:02;;;;;;;2.38;2.00;;;;;;;;;;4990461;28;20502;-65
2022/06/06 10:06:58;;;;;;;3.05;2.05;;;;;;;;;;4990590;28;20420;-66
2022/06/06 10:09:41;;;;;;;2.70;2.00;;;;;;;;;;4991261;28;20498;-66
2022/06/06 10:12:44;;;;;;;2.75;2.38;;;;;;;;;;4972650;28;20550;-65
2022/06/06 10:15:28;;;;;;;2.30;1.95;;;;;;;;;;4972700;28;20409;-65
2022/06/06 10:18:18;;;;;;;3.30;2.30;;;;;;;;;;4990340;28;20440;-65
2022/06/06 10:21:02;;;;;;;3.85;1.75;;;;;;;;;;4972738;28;20423;-65
2022/06/06 10:23:46;;;;;;;3.78;2.10;;;;;;;;;;4990719;28;20033;-66
2022/06/06 10:26:39;;;;;;;2.83;2.20;;;;;;;;;;4990454;28;20535;-65
2022/06/06 10:30:10;;;;;;;2.35;1.95;;;;;;;;;;4990626;28;20322;-65
2022/06/06 10:32:45;;;;;;;3.28;2.30;;;;;;;;;;4990708;28;20360;-65
2022/06/06 10:35:32;;;;;;;4.70;2.28;;;;;;;;;;4971919;28;20533;-65
2022/06/06 10:37:58;;;;;;;2.42;2.08;;;;;;;;;;4989957;28;20545;-65
2022/06/06 10:40:46;;;;;;;2.50;2.00;;;;;;;;;;4991890;28;20494;-65
2022/06/06 10:43:32;;;;;;;2.40;2.00;;;;;;;;;;4971970;28;20440;-65
2022/06/06 10:46:17;;;;;;;2.20;2.00;;;;;;;;;;4989527;28;20472;-65
2022/06/06 10:48:57;;;;;;;2.47;1.92;;;;;;;;;;4968053;28;20361;-66
2022/06/06 10:51:37;;;;;;;2.30;1.75;;;;;;;;;;4971070;28;20386;-65
2022/06/06 10:54:27;;;;;;;2.50;1.95;;;;;;;;;;4969246;28;20436;-65
2022/06/06 10:57:14;;;;;;;2.42;2.05;;;;;;;;;;4969572;28;20346;-65
2022/06/06 11:00:07;;;;;;;2.45;2.22;;;;;;;;;;4970399;28;20457;-65
2022/06/06 11:02:58;;;;;;;2.70;2.00;;;;;;;;;;4969953;28;20412;-66
2022/06/06 11:05:27;;;;;;;2.15;1.70;;;;;;;;;;4968122;28;20456;-67
2022/06/06 11:08:23;;;;;;;2.28;1.77;;;;;;;;;;4969783;28;20380;-66
2022/06/06 11:11:09;;;;;;;2.20;1.95;;;;;;;;;;4969559;28;20464;-67
2022/06/06 11:13:34;;;;;;;4.05;2.00;;;;;;;;;;4969777;28;20356;-66
2022/06/06 11:16:29;;;;;;;2.75;2.05;;;;;;;;;;4970070;28;20316;-66
2022/06/06 11:19:03;;;;;;;2.95;1.98;;;;;;;;;;4968143;28;20025;-67
2022/06/06 11:21:42;;;;;;;4.25;2.35;;;;;;;;;;4968092;28;20087;-65
2022/06/06 11:24:27;;;;;;;2.35;1.80;;;;;;;;;;4969933;28;20344;-66
2022/06/06 11:27:01;;;;;;;1.90;1.63;;;;;;;;;;4969531;28;20437;-66
2022/06/06 11:29:38;;;;;;;2.13;1.88;;;;;;;;;;4968841;28;20360;-66
2022/06/06 11:32:12;;;;;;;1.88;1.67;;;;;;;;;;4968059;28;20432;-65
2022/06/06 11:34:57;;;;;;;2.13;1.70;;;;;;;;;;4969169;28;20512;-66
2022/06/06 11:37:49;;;;;;;3.53;2.25;;;;;;;;;;4969298;28;20037;-65
2022/06/06 11:40:50;;;;;;;2.63;2.05;;;;;;;;;;4969181;28;20472;-67
2022/06/06 11:43:25;;;;;;;2.00;1.80;;;;;;;;;;4964988;28;20475;-65
2022/06/06 11:46:42;;;;;;;2.85;2.05;;;;;;;;;;4967415;28;20479;-65
2022/06/06 11:49:38;;;;;;;2.63;2.15;;;;;;;;;;4957247;28;20338;-66
2022/06/06 11:52:21;;;;;;;3.30;2.10;;;;;;;;;;4968808;28;20060;-65
2022/06/06 11:54:58;;;;;;;2.42;1.95;;;;;;;;;;4967902;28;20578;-65
2022/06/06 11:58:07;;;;;;;2.10;1.90;;;;;;;;;;4967792;28;20378;-66
2022/06/06 12:00:57;;;;;;;2.55;1.90;;;;;;;;;;4969012;28;20051;-66
2022/06/06 12:03:35;;;;;;;2.58;2.10;;;;;;;;;;4967247;28;20325;-66
2022/06/06 12:06:32;;;;;;;5.05;1.90;;;;;;;;;;4970502;28;20439;-66
2022/06/06 12:09:17;;;;;;;2.08;1.88;;;;;;;;;;4973105;28;20033;-66
2022/06/06 12:12:08;;;;;;;2.25;1.88;;;;;;;;;;4973273;28;20553;-66
2022/06/06 12:14:45;;;;;;;2.17;1.55;;;;;;;;;;4971117;28;20468;-65
2022/06/06 12:17:10;;;;;;;2.08;1.65;;;;;;;;;;4972898;28;20444;-66
2022/06/06 12:19:57;;;;;;;2.13;1.92;;;;;;;;;;4973051;28;20441;-66
2022/06/06 12:22:51;;;;;;;1.75;1.60;;;;;;;;;;4973158;28;20033;-66
2022/06/06 12:25:31;;;;;;;3.00;1.95;;;;;;;;;;4972175;28;20324;-66
2022/06/06 12:28:09;;;;;;;2.47;1.90;;;;;;;;;;4972578;28;20037;-66
2022/06/06 12:30:46;;;;;;;2.15;1.80;;;;;;;;;;4972829;28;20371;-66
2022/06/06 12:33:18;;;;;;;2.22;1.90;;;;;;;;;;4972426;28;20338;-67
2022/06/06 12:35:51;;;;;;;2.35;1.77;;;;;;;;;;4972004;28;20421;-66
2022/06/06 12:38:34;;;;;;;3.67;1.80;;;;;;;;;;4971003;28;20347;-67
2022/06/06 12:41:44;;;;;;;1.90;1.58;;;;;;;;;;4972318;28;20499;-66
2022/06/06 12:44:35;;;;;;;2.42;2.05;;;;;;;;;;4950047;28;20034;-66
2022/06/06 12:47:12;;;;;;;2.17;1.95;;;;;;;;;;4950486;28;20034;-66
2022/06/06 12:50:03;;;;;;;2.22;1.70;;;;;;;;;;4979394;28;20443;-66
2022/06/06 12:52:55;;;;;;;3.13;2.20;;;;;;;;;;4991509;28;20415;-67
2022/06/06 12:55:31;;;;;;;4.10;1.83;;;;;;;;;;4974317;28;20447;-66
2022/06/06 12:58:07;;;;;;;2.38;1.85;;;;;;;;;;4991564;28;20492;-65
2022/06/06 13:03:41;;;;;;;3.22;2.00;;;;;;;;;;4992648;28;20387;-67
2022/06/06 13:06:48;;;;;;;2.00;1.80;;;;;;;;;;4973962;28;20341;-65
2022/06/06 13:09:26;;;;;;;1.85;1.73;;;;;;;;;;4958334;28;20398;-66
2022/06/06 13:12:15;;;;;;;;;;;;;;;;;;4993465;28;20368;-66
2022/06/06 13:15:05;;;;;;;2.45;1.83;;;;;;;;;;4973732;28;20217;-66
2022/06/06 13:18:02;;;;;;;3.17;1.98;;;;;;;;;;4991586;28;20432;-66
2022/06/06 13:20:48;;;;;;;2.90;2.20;;;;;;;;;;4973503;28;20422;-66
2022/06/06 13:23:29;;;;;;;2.25;2.05;;;;;;;;;;4991136;28;20033;-65
2022/06/06 13:26:07;;;;;;;2.55;2.05;;;;;;;;;;4992503;28;20328;-65
2022/06/06 13:28:43;;;;;;;3.00;1.88;;;;;;;;;;4990850;28;20379;-65
2022/06/06 13:31:18;;;;;;;2.30;1.88;;;;;;;;;;4973497;28;20376;-65
2022/06/06 13:34:21;;;;;;;2.55;2.22;;;;;;;;;;4972912;28;20438;-66
2022/06/06 13:36:49;;;;;;;2.63;1.88;;;;;;;;;;4991183;28;20421;-66
2022/06/06 13:39:52;;;;;;;2.97;2.40;;;;;;;;;;4991000;28;20419;-68
2022/06/06 13:42:18;;;;;;;3.13;1.85;;;;;;;;;;4990997;28;20444;-68
2022/06/06 13:45:00;;;;;;;3.55;2.70;;;;;;;;;;4991152;28;20424;-68
2022/06/06 13:47:26;;;;;;;2.35;2.15;;;;;;;;;;4990536;28;20360;-68
2022/06/06 13:50:17;;;;;;;2.65;2.08;;;;;;;;;;4969599;28;20054;-68
2022/06/06 13:53:05;;;;;;;2.63;1.95;;;;;;;;;;4971075;28;20785;-67
2022/06/06 13:55:34;;;;;;;3.13;2.40;;;;;;;;;;4970314;28;20029;-67
2022/06/06 13:58:07;;;;;;;;;;;;;;;;;;4971427;28;20021;-68
2022/06/06 14:01:11;;;;;;;2.47;1.90;;;;;;;;;;4972376;28;19921;-68
2022/06/06 14:04:06;;;;;;;4.38;2.30;;;;;;;;;;4971052;28;20324;-68
2022/06/06 14:06:59;;;;;;;3.10;2.30;;;;;;;;;;4971035;28;20437;-68
2022/06/06 14:09:38;;;;;;;2.75;2.00;;;;;;;;;;4972172;28;20033;-68
2022/06/06 14:12:20;;;;;;;2.67;1.80;;;;;;;;;;4969415;28;20447;-68
2022/06/06 14:14:47;;;;;;;3.30;2.20;;;;;;;;;;4970805;28;20548;-67
2022/06/06 14:17:13;;;;;;;2.85;2.20;;;;;;;;;;4969673;28;20458;-68
2022/06/06 14:19:54;;;;;;;3.75;2.17;;;;;;;;;;4969171;28;20367;-68
2022/06/06 14:22:31;;;;;;;2.40;1.92;;;;;;;;;;4971000;28;20428;-68
2022/06/06 14:25:00;;;;;;;2.47;2.00;;;;;;;;;;4969499;28;20413;-68
2022/06/06 14:27:25;;;;;;;3.40;2.10;;;;;;;;;;4968687;28;20436;-68
2022/06/06 14:29:51;;;;;;;2.70;1.92;;;;;;;;;;4968577;28;20494;-68
2022/06/06 14:32:28;;;;;;;2.20;1.92;;;;;;;;;;4970366;28;20454;-68
2022/06/06 14:34:56;;;;;;;2.92;2.30;;;;;;;;;;4968975;28;20544;-68
2022/06/06 14:37:33;;;;;;;2.50;2.13;;;;;;;;;;4969317;28;20417;-68
2022/06/06 14:40:05;;;;;;;3.00;2.33;;;;;;;;;;4968546;28;20413;-68
2022/06/06 14:42:32;;;;;;;2.70;2.20;;;;;;;;;;4969876;28;20403;-68
2022/06/06 14:45:03;;;;;;;2.30;1.70;;;;;;;;;;4968557;28;20029;-68
2022/06/06 14:47:29;;;;;;;2.28;1.92;;;;;;;;;;4969040;28;20428;-68
2022/06/06 14:52:59;;;;;;;2.63;1.98;;;;;;;;;;4969682;28;20487;-68
2022/06/06 14:55:25;;;;;;;2.10;1.88;;;;;;;;;;4969935;28;20438;-69
2022/06/06 14:57:51;;;;;;;3.05;2.15;;;;;;;;;;4969052;28;20071;-68
2022/06/06 15:00:32;;;;;;;2.53;1.92;;;;;;;;;;4968406;28;20371;-67
2022/06/06 15:03:04;;;;;;;3.97;2.03;;;;;;;;;;4968149;28;20463;-68
2022/06/06 15:05:29;;;;;;;2.13;1.77;;;;;;;;;;4952218;28;20290;-68
2022/06/06 15:08:03;;;;;;;2.88;2.05;;;;;;;;;;4969765;28;20353;-68
2022/06/06 15:10:42;;;;;;;3.45;2.15;;;;;;;;;;4967979;28;20503;-68
2022/06/06 15:13:08;;;;;;;2.58;2.20;;;;;;;;;;4969428;28;20447;-68
2022/06/06 15:15:34;;;;;;;2.55;1.77;;;;;;;;;;4968433;28;20427;-68
2022/06/06 15:18:01;;;;;;;2.60;2.10;;;;;;;;;;4952071;28;20332;-68
2022/06/06 15:20:30;;;;;;;4.55;2.00;;;;;;;;;;4968042;28;20087;-68
2022/06/06 15:23:17;;;;;;;3.90;2.05;;;;;;;;;;4969355;28;20463;-68
2022/06/06 15:25:49;;;;;;;3.22;2.38;;;;;;;;;;4967955;28;20060;-68
2022/06/06 15:28:29;;;;;;;2.67;2.10;;;;;;;;;;4968192;28;20382;-68
2022/06/06 15:30:57;;;;;;;2.58;2.00;;;;;;;;;;4968655;28;20099;-68
2022/06/06 15:33:40;;;;;;;3.35;2.30;;;;;;;;;;4968310;28;20043;-68
2022/06/06 15:36:08;;;;;;;2.47;1.92;;;;;;;;;;4969115;28;20334;-68
2022/06/06 15:38:46;;;;;;;2.65;2.13;;;;;;;;;;4968275;28;20029;-67
2022/06/06 15:41:52;;;;;;;2.55;2.10;;;;;;;;;;4968785;28;20420;-68
2022/06/06 15:45:09;;;;;;;2.65;1.90;;;;;;;;;;4969585;28;20494;-68
2022/06/06 15:48:19;;;;;;;2.30;1.77;;;;;;;;;;4958879;28;20174;-68
2022/06/06 15:51:06;;;;;;;3.25;2.30;;;;;;;;;;4943757;28;21275;-68
2022/06/06 15:53:59;;;;;;;2.88;1.75;;;;;;;;;;4948869;28;20446;-68
2022/06/06 15:56:43;;;;;;;2.60;2.10;;;;;;;;;;4949602;28;20322;-68
2022/06/06 15:59:27;;;;;;;3.35;2.42;;;;;;;;;;4949745;28;20052;-68
2022/06/06 16:02:01;;;;;;;2.42;1.98;;;;;;;;;;4949693;28;20341;-68
2022/06/06 16:04:42;;;;;;;3.22;1.95;;;;;;;;;;4949993;28;20326;-68
2022/06/06 16:07:25;;;;;;;1.92;1.70;;;;;;;;;;4950496;28;20464;-68
2022/06/06 16:10:13;;;;;;;2.78;2.13;;;;;;;;;;4950029;28;20453;-69
2022/06/06 16:12:59;;;;;;;1.93;1.70;;;;;;;;;;4950020;28;20401;-67
2022/06/06 16:15:56;;;;;;;2.38;2.15;;;;;;;;;;4949929;28;20722;-69
2022/06/06 16:18:28;;;;;;;2.72;1.83;;;;;;;;;;4948024;28;20133;-69
2022/06/06 16:21:11;;;;;;;3.25;1.85;;;;;;;;;;4947963;28;20018;-68
2022/06/06 16:24:02;;;;;;;2.70;2.17;;;;;;;;;;4948358;28;20451;-68